Jaffrey, NH

11:17 AM EDT on July 01, 2015 (GMT -0400)
Town Pines | | Change Station
CLOSE
Current Station
Personal Weather Station
Location: Rindge, NH
Elevation: 1302 ft
Nearby Weather Stations

Elev 1302 ft 42.74 °N, 72.03 °W | Updated 1 minute ago

Overcast
Overcast
64.0 °F
Feels Like 64.0 °F
N
2.2
Wind Variable Wind from West
Gusts 2.7 mph

Today
High -- | Low -- °F
--% Chance of Precip.
Yesterday
High -- | Low -- °F
Precip. -- in
5:13 AM 8:30 PM
Full, 100% visible
Pressure 29.78 in
Visibility 10.0 miles
Clouds Mostly Cloudy 800 ft
Overcast 1200 ft
Dew Point 46 °F
Humidity 51%
Rainfall -999.00 in
Snow Depth Not available.
UV 3 out of 12
Pollen 1.20 out of 12
Air Quality Not available.
Flu Activity Not available.
SPECI KAFN 011514Z AUTO 18006KT 10SM BKN008 OVC012 18/17 A2978 RMK AO2 RAE01 CIG 005V009 P0000 T01830172

More Conditions Fewer Conditions

Pressure 29.78 in
Visibility 10.0 miles
Clouds Mostly Cloudy 800 ft
Overcast 1200 ft
Dew Point 46 °F
Humidity 51%
Rainfall -999.00 in
Snow Depth Not available.
UV 3 out of 12
Pollen 1.20 out of 12
Air Quality Not available.
Flu Activity Not available.
SPECI KAFN 011514Z AUTO 18006KT 10SM BKN008 OVC012 18/17 A2978 RMK AO2 RAE01 CIG 005V009 P0000 T01830172

More Conditions Fewer Conditions

10-Day Weather Forecast

×

Almanac

Astronomy

Jul. 01, 2015 Rise Set
Actual Time
Civil Twilight
Nautical Twilight
Astronomical Twilight
Moon
Length of Visible Light
Length of Day
Tomorrow will be .
, % of the Moon is Illuminated

Today's Extremes

State Highs State Lows

Community

WunderPhotos

Upload Photos

1,834,224 photos uploaded!

WunderBlogs® & News

Nearby

Air Quality

  Air Quality AQ Index Pollutant
Not available.

Snow Depth

Station Depth Elevation

Earthquake Activity

City Distance Mag. Time & Date
Minimum magnitude displayed is 2.5.

Coastal Water Temperatures

Place Temperature

Stations

Nearby Weather Stations

Station Location Temp. Windchill Dew Point Humidity Wind Precip. Elev Updated Type